Durango Ski Resort, Colorado Weather observations

Data are for observation ending at time listed.
 Day   Time    Ave.   Ave.  Ave.  Vector   Max.    Total    Solar   Ave.  
  of    of     Air    Rel.  Wind   Wind    Wind   Precip.   Rad.    Soil  
Year   Day     Temp.  Hum.  Speed  Dir.    Gust                     Temp. 
2014   (PST)    F      %     mph   deg.    mph      in.     W/m2     F   
------------------------------------------------------------------------------
 294   17:30   38.0    94    5.0   171      8.2    99999.00   99999    99999.0
 294   17:40   37.8    96    4.8   168      7.8    99999.00   99999    99999.0
 294   17:50   37.6    96    6.5   171      9.5    99999.00   99999    99999.0
 294   18:00   37.6    96    5.6   176     10.8    99999.00   99999    99999.0
 294   18:10   37.6    96    3.2   183      8.6    99999.00   99999    99999.0
 294   18:20   37.5    96    2.1   196      7.4    99999.00   99999    99999.0
 294   18:30   37.5    96    0.2   201      4.4    99999.00   99999    99999.0
 294   18:40   37.4    96    2.5   186      6.5    99999.00   99999    99999.0
 294   18:50   37.1    96    3.6   198      9.1    99999.00   99999    99999.0
 294   19:00   37.0    96    4.9   180      8.2    99999.00   99999    99999.0
 294   19:10   37.0    96    4.8   178      6.9    99999.00   99999    99999.0
 294   19:20   36.8    96    5.6   178      6.9    99999.00   99999    99999.0
 294   19:30   36.6    96    4.9   177      6.5    99999.00   99999    99999.0
 294   19:40   36.7    96    2.5   177      5.7    99999.00   99999    99999.0
 294   19:50   36.7    96    0.5   177      3.5    99999.00   99999    99999.0
 294   20:00   36.7    96    0.0     0      0.0    99999.00   99999    99999.0
 294   20:10   36.7    95    0.5   177      5.2    99999.00   99999    99999.0
 294   20:20   36.8    95    5.5   176      6.1    99999.00   99999    99999.0
 294   20:30   36.6    96    5.8   171      7.4    99999.00   99999    99999.0
 294   20:40   36.5    97    5.1   171      6.5    99999.00   99999    99999.0
 294   20:50   36.7    96    4.9   171      6.1    99999.00   99999    99999.0
 294   21:00   36.8    95    4.6   170      6.1    99999.00   99999    99999.0
 294   21:10   36.6    94    5.5   151      6.5    99999.00   99999    99999.0
 294   21:20   36.8    93    4.3   150      5.7    99999.00   99999    99999.0
 294   21:30   36.9    93    2.9   150      4.8    99999.00   99999    99999.0
 294   21:40   36.8    93    0.0     0      0.0    99999.00   99999    99999.0
 294   21:50   37.0    93    0.0     0      0.0    99999.00   99999    99999.0
 294   22:00   37.5    90    0.0     0      0.0    99999.00   99999    99999.0
 294   22:10   37.3    92    0.0     0      0.0    99999.00   99999    99999.0
 294   22:20   37.0    93    0.0     0      0.0    99999.00   99999    99999.0
 294   22:30   37.0    93    0.0     0      0.0    99999.00   99999    99999.0
 294   22:40   37.1    93    0.0     0      0.0    99999.00   99999    99999.0
 294   22:50   37.0    93    2.7   150      5.7    99999.00   99999    99999.0
 294   23:00   37.0    93    3.9   150      6.1    99999.00   99999    99999.0
 294   23:10   36.9    93    3.7   150      6.1    99999.00   99999    99999.0
 294   23:20   36.8    94    3.7   150      5.7    99999.00   99999    99999.0
 294   23:30   36.8    94    0.8   150      6.1    99999.00   99999    99999.0
 294   23:40   36.6    94    0.0     0      0.0    99999.00   99999    99999.0
 294   23:50   36.6    94    0.0     0      0.0    99999.00   99999    99999.0
 295    0:00   36.5    94    0.0     0      0.0    99999.00   99999    99999.0
 295    0:10   36.5    94    3.8   154      6.1    99999.00   99999    99999.0
 295    0:20   36.2    95    5.1   154      6.1    99999.00   99999    99999.0
 295    0:30   36.2    95    5.2   154      6.9    99999.00   99999    99999.0
 295    0:40   36.4    94    5.0   154      6.1    99999.00   99999    99999.0
 295    0:50   36.5    95    4.6   154      5.7    99999.00   99999    99999.0
 295    1:00   36.5    94    4.8   154      6.5    99999.00   99999    99999.0
 295    1:10   36.4    95    4.1   155      5.2    99999.00   99999    99999.0
 295    1:20   36.2    96    4.6   155      5.7    99999.00   99999    99999.0
 295    1:30   36.0    96    4.5   155      6.1    99999.00   99999    99999.0
 295    1:40   36.0    97    3.6   155      5.2    99999.00   99999    99999.0
 295    1:50   36.3    96    3.3   155      3.9    99999.00   99999    99999.0
 295    2:00   36.5    92    1.8   171      5.2    99999.00   99999    99999.0
 295    2:10   36.4    94    2.6   188      7.4    99999.00   99999    99999.0
 295    2:20   36.1    97    0.0     0      0.0    99999.00   99999    99999.0
 295    2:30   36.1    97    0.0     0      0.0    99999.00   99999    99999.0
 295    2:40   36.1    98    0.0     0      0.0    99999.00   99999    99999.0
 295    2:50   36.1    98    0.0     0      0.0    99999.00   99999    99999.0
 295    3:00   36.1    96    0.0     0      0.0    99999.00   99999    99999.0
 295    3:10   36.5    90    0.0     0      0.0    99999.00   99999    99999.0
 295    3:20   36.8    89    0.0   181      2.7    99999.00   99999    99999.0
 295    3:30   36.8    89    0.4   181      3.9    99999.00   99999    99999.0
 295    3:40   36.8    89    0.0     0      0.0    99999.00   99999    99999.0
 295    3:50   36.8    89    0.0     0      0.0    99999.00   99999    99999.0
 295    4:00   36.8    89    0.0     0      0.0    99999.00   99999    99999.0
 295    4:10   36.8    89    0.0     0      0.0    99999.00   99999    99999.0
 295    4:20   36.8    89    0.0     0      0.0    99999.00   99999    99999.0
 295    4:30   36.6    89    3.1   260      7.8    99999.00   99999    99999.0
 295    4:40   36.5    90    6.2   273      7.8    99999.00   99999    99999.0
 295    4:50   36.4    90    5.7   274      7.4    99999.00   99999    99999.0
 295    5:00   36.4    90    5.9   274      7.8    99999.00   99999    99999.0
 295    5:10   36.3    91    6.0   274      7.8    99999.00   99999    99999.0
 295    5:20   36.2    92    5.9   274      7.4    99999.00   99999    99999.0
 295    5:30   36.2    92    5.3   274      6.9    99999.00   99999    99999.0
 295    5:40   36.2    91    5.2   274      6.5    99999.00   99999    99999.0
 295    5:50   36.1    92    4.5   274      5.7    99999.00   99999    99999.0
 295    6:00   36.1    92    4.0   274      4.8    99999.00   99999    99999.0
 295    6:10   36.2    92    5.0   274      6.1    99999.00   99999    99999.0
 295    6:20   36.3    91    5.8   274      6.9    99999.00   99999    99999.0
 295    6:30   36.1    92    6.4   274      8.2    99999.00   99999    99999.0
 295    6:40   36.1    92    7.1   286      9.5    99999.00   99999    99999.0
 295    6:50   36.3    91    6.1   293      7.8    99999.00   99999    99999.0
 295    7:00   36.6    90    5.8   276      9.9    99999.00   99999    99999.0
 295    7:10   36.8    89    5.6   267      7.4    99999.00   99999    99999.0
 295    7:20   37.0    88    6.4   270      9.9    99999.00   99999    99999.0
 295    7:30   37.1    87    6.4   271      9.1    99999.00   99999    99999.0
 295    7:40   37.4    87    5.1   260      6.9    99999.00   99999    99999.0
 295    7:50   37.8    85    5.2   258      7.4    99999.00   99999    99999.0
 295    8:00   38.2    84    4.9   255      8.6    99999.00   99999    99999.0
 295    8:10   38.6    83    3.8   266      6.9    99999.00   99999    99999.0
 295    8:20   39.1    82    3.5   253      7.4    99999.00   99999    99999.0
 295    8:30   39.3    81    3.8   259      9.9    99999.00   99999    99999.0
 295    8:40   39.2    81    4.7   267      9.1    99999.00   99999    99999.0
 295    8:50   39.5    81    5.3   286      9.1    99999.00   99999    99999.0
 295    9:00   39.1    81    4.4   290      8.2    99999.00   99999    99999.0
 295    9:10   39.4    78    4.4   291      9.9    99999.00   99999    99999.0
 295    9:20   39.8    77    4.8   258      9.1    99999.00   99999    99999.0
 295    9:30   40.4    74    6.9   283     13.3    99999.00   99999    99999.0
 295    9:40   40.7    72    5.8   296      9.9    99999.00   99999    99999.0
 295    9:50   39.8    72    8.4   309     14.6    99999.00   99999    99999.0
 295   10:00   39.1    73    9.2   305     15.9    99999.00   99999    99999.0
 295   10:10   39.0    74    7.3   282     10.8    99999.00   99999    99999.0
 295   10:20   39.7    69    7.7   268     10.8    99999.00   99999    99999.0
 295   10:30   39.9    69    8.4   298     12.9    99999.00   99999    99999.0
 295   10:40   39.5    72    9.1   300     13.3    99999.00   99999    99999.0
 295   10:50   39.5    71    7.9   293     10.8    99999.00   99999    99999.0
 295   11:00   40.1    67    6.9   271     11.2    99999.00   99999    99999.0
 295   11:10   41.1    66    9.2   304     17.2    99999.00   99999    99999.0
 295   11:20   40.3    66    8.8   287     15.9    99999.00   99999    99999.0
 295   11:30   40.6    65    7.9   294     12.1    99999.00   99999    99999.0
 295   11:40   40.8    66   10.5   300     16.8    99999.00   99999    99999.0
 295   11:50   40.9    66    9.3   294     15.5    99999.00   99999    99999.0
 295   12:00   40.1    69    9.7   302     18.5    99999.00   99999    99999.0
 295   12:10   41.8    64   11.4   310     18.5    99999.00   99999    99999.0
 295   12:20   41.1    63   13.7   320     19.7    99999.00   99999    99999.0
 295   12:30   41.5    62   11.4   305     15.5    99999.00   99999    99999.0
 295   12:40   42.1    60   13.9   309     22.7    99999.00   99999    99999.0
 295   12:50   41.5    62   12.8   311     20.6    99999.00   99999    99999.0
 295   13:00   40.2    65   11.6   305     16.8    99999.00   99999    99999.0
 295   13:10   40.1    67   10.0   297     16.3    99999.00   99999    99999.0
 295   13:20   41.8    63   10.1   303     16.8    99999.00   99999    99999.0
 295   13:30   42.4    62    7.5   277     13.3    99999.00   99999    99999.0
 295   13:40   43.6    56    9.9   284     16.3    99999.00   99999    99999.0
 295   13:50   43.5    56    9.2   308     17.2    99999.00   99999    99999.0
 295   14:00   43.5    58    7.5   288     13.8    99999.00   99999    99999.0
 295   14:10   42.5    59    8.7   296     13.8    99999.00   99999    99999.0
 295   14:20   41.4    62   11.3   316     18.5    99999.00   99999    99999.0
 295   14:30   40.8    65   11.3   304     17.6    99999.00   99999    99999.0
 295   14:40   40.2    68   10.8   297     16.3    99999.00   99999    99999.0
 295   14:50   40.3    68    8.3   298     11.2    99999.00   99999    99999.0
 295   15:00   40.9    66    8.3   285     13.3    99999.00   99999    99999.0
 295   15:10   40.6    67    7.2   263     16.8    99999.00   99999    99999.0
 295   15:20   41.7    64    7.4   250     13.3    99999.00   99999    99999.0
 295   15:30   43.8    60    8.7   243     13.8    99999.00   99999    99999.0
 295   15:40   44.3    57    7.5   263     12.9    99999.00   99999    99999.0
 295   15:50   44.5    55    8.4   247     14.6    99999.00   99999    99999.0
 295   16:00   44.2    55    8.8   246     15.0    99999.00   99999    99999.0
 295   16:10   44.0    54    8.5   254     14.2    99999.00   99999    99999.0
 295   16:20   43.2    55    7.5   273     13.8    99999.00   99999    99999.0
 295   16:30   41.2    58    7.8   254     12.1    99999.00   99999    99999.0
 295   16:40   40.9    60    6.4   247     12.5    99999.00   99999    99999.0
 295   16:50   41.6    58    7.0   266      9.9    99999.00   99999    99999.0
 295   17:00   41.7    59    7.4   259     11.6    99999.00   99999    99999.0
 295   17:10   41.3    60    7.4   269     10.8    99999.00   99999    99999.0
 295   17:20   41.5    59    7.3   266     11.2    99999.00   99999    99999.0

Return to Durango Ski Resort, Colorado graphs page.


Western Regional Climate Center,wrcc@dri.edu